Time;durP1;ratioP1;P1;durP2;ratioP2;P2;SDS_P1;SDS_P2;PMS_P1;PMS_P2;Temp;Humidity;BMP_temperature;BMP_pressure;BME280_temperature;BME280_humidity;BME280_pressure;Samples;Min_cycle;Max_cycle;Signal;HPM_P1;HPM_P2
2023/10/30 00:00:34;;;;;;;29.13;18.98;;;;;;;;;;5048558;28;20550;-85
2023/10/30 00:03:00;;;;;;;57.47;34.95;;;11.50;99.90;;;;;;5048851;28;20033;-85
2023/10/30 00:05:26;;;;;;;51.25;33.60;;;;;;;;;;5049073;28;20468;-84
2023/10/30 00:07:53;;;;;;;14.43;2.80;;;11.80;99.90;;;;;;5048258;28;20047;-84
2023/10/30 00:10:19;;;;;;;23.90;17.75;;;10.20;99.90;;;;;;5048613;28;20040;-84
2023/10/30 00:12:45;;;;;;;60.83;36.45;;;;;;;;;;5048210;28;20021;-85
2023/10/30 00:15:11;;;;;;;69.30;38.15;;;;;;;;;;5045584;28;20029;-85
2023/10/30 00:17:36;;;;;;;64.80;37.83;;;11.40;99.90;;;;;;5046667;28;20400;-86
2023/10/30 00:20:02;;;;;;;71.82;38.95;;;10.30;99.90;;;;;;5048225;28;20029;-87
2023/10/30 00:22:28;;;;;;;71.63;38.30;;;;;;;;;;5048326;28;20037;-85
2023/10/30 00:24:54;;;;;;;72.05;39.70;;;12.80;99.90;;;;;;5046754;28;20024;-85
2023/10/30 00:27:20;;;;;;;12.23;2.42;;;;;;;;;;5047715;28;20107;-85
2023/10/30 00:29:46;;;;;;;27.33;18.85;;;;;;;;;;5048152;28;20033;-85
2023/10/30 00:32:12;;;;;;;75.93;40.28;;;12.30;99.90;;;;;;5046571;28;20112;-87
2023/10/30 00:34:39;;;;;;;78.47;41.30;;;;;;;;;;5046780;28;20113;-85
2023/10/30 00:37:05;;;;;;;78.20;41.38;;;;;;;;;;5047901;28;20017;-85
2023/10/30 00:39:32;;;;;;;19.10;10.50;;;11.30;99.90;;;;;;5047463;28;20035;-86
2023/10/30 00:41:59;;;;;;;68.18;38.22;;;11.80;99.90;;;;;;5047272;28;20017;-85
2023/10/30 00:44:26;;;;;;;68.03;38.10;;;11.80;99.90;;;;;;5047858;28;20029;-86
2023/10/30 00:46:53;;;;;;;48.03;32.25;;;11.80;99.90;;;;;;5046385;28;20021;-85
2023/10/30 00:49:19;;;;;;;56.65;34.10;;;;;;;;;;5047058;28;20035;-86
2023/10/30 00:51:44;;;;;;;94.57;44.92;;;11.80;99.90;;;;;;5048117;28;20020;-85
2023/10/30 00:54:10;;;;;;;52.97;31.42;;;11.30;99.90;;;;;;5047349;28;20032;-85
2023/10/30 00:56:36;;;;;;;83.85;42.50;;;;;;;;;;5047804;28;20060;-88
2023/10/30 00:59:02;;;;;;;56.47;31.65;;;;;;;;;;5048181;28;20392;-85
2023/10/30 01:01:28;;;;;;;76.55;41.08;;;11.70;99.90;;;;;;5047560;28;20079;-84
2023/10/30 01:03:53;;;;;;;71.38;39.95;;;11.10;99.90;;;;;;5047183;28;20481;-86
2023/10/30 01:06:19;;;;;;;75.63;40.97;;;11.30;99.90;;;;;;5046732;28;20082;-85
2023/10/30 01:08:45;;;;;;;75.65;41.97;;;;;;;;;;5048635;28;20044;-85
2023/10/30 01:11:10;;;;;;;82.38;41.97;;;12.80;99.90;;;;;;5048220;28;20029;-85
2023/10/30 01:13:36;;;;;;;59.67;36.22;;;12.80;99.90;;;;;;5048348;28;20025;-85
2023/10/30 01:16:03;;;;;;;45.03;27.27;;;11.60;99.90;;;;;;5048650;28;20357;-85
2023/10/30 01:18:29;;;;;;;57.15;34.72;;;10.10;99.90;;;;;;5048110;28;20020;-85
2023/10/30 01:20:55;;;;;;;61.63;36.30;;;12.00;99.90;;;;;;5047543;28;20396;-86
2023/10/30 01:23:21;;;;;;;66.15;37.05;;;;;;;;;;5047983;28;20021;-87
2023/10/30 01:25:47;;;;;;;70.53;38.35;;;12.50;99.90;;;;;;5028523;28;20040;-85
2023/10/30 01:28:14;;;;;;;73.38;40.97;;;;;;;;;;5049825;28;20037;-85
2023/10/30 01:30:40;;;;;;;69.30;38.13;;;12.10;99.90;;;;;;5051951;28;20028;-85
2023/10/30 01:33:05;;;;;;;62.28;36.38;;;11.40;99.90;;;;;;5051337;28;20070;-85
2023/10/30 01:35:31;;;;;;;6.85;2.05;;;;;;;;;;5051190;28;20071;-87
2023/10/30 01:37:57;;;;;;;8.32;1.90;;;;;;;;;;5053015;28;20060;-85
2023/10/30 01:40:23;;;;;;;9.68;2.20;;;12.70;99.90;;;;;;5051649;28;20554;-85
2023/10/30 01:42:49;;;;;;;9.65;2.85;;;;;;;;;;5052077;28;20017;-85
2023/10/30 01:45:15;;;;;;;12.63;2.85;;;;;;;;;;5052002;28;20032;-85
2023/10/30 01:47:42;;;;;;;11.43;3.20;;;12.20;99.90;;;;;;5035763;28;20523;-85
2023/10/30 01:50:10;;;;;;;18.77;3.15;;;11.90;99.90;;;;;;5051650;28;20476;-85
2023/10/30 01:52:36;;;;;;;10.90;2.85;;;13.90;99.90;;;;;;5050000;28;20041;-86
2023/10/30 01:55:03;;;;;;;7.68;1.95;;;12.20;99.90;;;;;;5049872;28;20501;-85
2023/10/30 01:57:29;;;;;;;9.80;2.00;;;;;;;;;;5050820;28;20039;-85
2023/10/30 01:59:56;;;;;;;11.60;2.15;;;12.30;99.90;;;;;;5051260;28;20074;-85
2023/10/30 02:02:23;;;;;;;11.82;2.08;;;13.40;99.90;;;;;;5050101;28;20033;-86
2023/10/30 02:04:49;;;;;;;51.97;31.65;;;12.20;99.90;;;;;;5051754;28;20025;-85
2023/10/30 02:07:15;;;;;;;68.35;37.42;;;;;;;;;;5051721;28;20499;-85
2023/10/30 02:09:41;;;;;;;71.47;39.00;;;11.50;99.90;;;;;;5051281;28;20033;-88
2023/10/30 02:12:07;;;;;;;78.30;39.42;;;13.10;99.90;;;;;;5051586;28;20021;-86
2023/10/30 02:14:33;;;;;;;64.50;37.53;;;12.40;99.90;;;;;;5050442;28;20077;-86
2023/10/30 02:16:59;;;;;;;68.63;38.35;;;;;;;;;;5051817;28;20021;-87
2023/10/30 02:19:26;;;;;;;73.03;39.40;;;12.30;99.90;;;;;;5051535;28;20028;-89
2023/10/30 02:21:54;;;;;;;72.85;39.72;;;12.40;99.90;;;;;;5049045;28;20248;-85
2023/10/30 02:24:20;;;;;;;78.60;42.60;;;;;;;;;;5051407;28;20027;-85
2023/10/30 02:26:50;;;;;;;81.32;40.75;;;13.10;99.90;;;;;;5051405;28;20052;-86
2023/10/30 02:29:16;;;;;;;65.78;35.95;;;12.40;99.90;;;;;;5051165;28;20412;-87
2023/10/30 02:31:43;;;;;;;78.30;39.55;;;12.90;99.90;;;;;;5051316;28;20023;-85
2023/10/30 02:34:08;;;;;;;68.50;38.47;;;13.10;99.90;;;;;;5050606;28;20033;-86
2023/10/30 02:36:34;;;;;;;66.68;36.85;;;;;;;;;;5049679;28;20500;-87
2023/10/30 02:39:03;;;;;;;66.25;37.03;;;12.50;99.90;;;;;;5051227;28;20028;-85
2023/10/30 02:41:31;;;;;;;62.35;37.17;;;12.00;99.90;;;;;;5049643;28;20427;-86
2023/10/30 02:43:57;;;;;;;62.70;36.53;;;9.90;99.90;;;;;;5051164;28;20024;-85
2023/10/30 02:46:23;;;;;;;75.85;39.83;;;11.60;99.90;;;;;;5049312;28;20052;-85
2023/10/30 02:48:50;;;;;;;69.72;39.00;;;;;;;;;;5049710;28;20045;-85
2023/10/30 02:51:16;;;;;;;75.00;39.58;;;;;;;;;;5048999;28;20033;-84
2023/10/30 02:53:42;;;;;;;70.85;38.42;;;13.30;99.90;;;;;;5044341;28;20128;-85
2023/10/30 02:56:07;;;;;;;60.33;35.45;;;;;;;;;;5048901;28;20464;-85
2023/10/30 02:58:33;;;;;;;67.35;37.03;;;10.10;99.90;;;;;;5044748;28;20512;-86
2023/10/30 03:01:00;;;;;;;72.95;37.65;;;;;;;;;;5049556;28;20369;-85
2023/10/30 03:03:26;;;;;;;64.88;36.83;;;12.20;99.90;;;;;;5049427;28;20031;-85
2023/10/30 03:05:52;;;;;;;83.80;41.97;;;;;;;;;;5050580;28;20075;-84
2023/10/30 03:08:18;;;;;;;78.55;40.85;;;13.80;99.90;;;;;;5046640;28;20040;-89
2023/10/30 03:10:46;;;;;;;76.47;39.80;;;11.70;99.90;;;;;;5047209;28;20027;-85
2023/10/30 03:13:11;;;;;;;66.57;37.75;;;13.30;99.90;;;;;;5050508;28;20053;-85
2023/10/30 03:15:37;;;;;;;72.57;39.83;;;13.20;99.90;;;;;;5048806;28;20421;-87
2023/10/30 03:18:03;;;;;;;65.18;36.22;;;12.80;99.90;;;;;;5049866;28;20025;-86
2023/10/30 03:20:28;;;;;;;64.70;37.60;;;13.40;99.90;;;;;;5050222;28;20060;-85
2023/10/30 03:22:54;;;;;;;71.25;39.38;;;12.90;99.90;;;;;;5050124;28;20059;-85
2023/10/30 03:25:20;;;;;;;73.53;39.83;;;;;;;;;;5048851;28;20040;-89
2023/10/30 03:27:45;;;;;;;66.78;38.05;;;13.50;99.90;;;;;;5048691;28;20041;-87
2023/10/30 03:30:11;;;;;;;73.28;39.78;;;12.20;99.90;;;;;;5050342;28;20442;-85
2023/10/30 03:32:37;;;;;;;62.97;37.15;;;;;;;;;;5048392;28;20053;-86
2023/10/30 03:35:03;;;;;;;72.05;38.10;;;12.60;99.90;;;;;;5038104;28;20441;-90
2023/10/30 03:37:29;;;;;;;67.20;37.17;;;10.60;99.90;;;;;;5048185;28;20029;-86
2023/10/30 03:39:54;;;;;;;69.53;38.92;;;14.50;99.90;;;;;;5048476;28;20481;-89
2023/10/30 03:42:20;;;;;;;68.93;38.42;;;12.40;99.90;;;;;;5048790;28;20025;-90
2023/10/30 03:44:46;;;;;;;68.20;38.53;;;12.60;99.90;;;;;;5049300;28;20047;-88
2023/10/30 03:47:12;;;;;;;44.10;30.45;;;;;;;;;;5049928;28;20020;-86
2023/10/30 03:49:38;;;;;;;53.00;33.00;;;;;;;;;;5049127;28;20037;-85
2023/10/30 03:52:04;;;;;;;56.40;34.58;;;10.00;99.90;;;;;;5049930;28;20147;-88
2023/10/30 03:54:30;;;;;;;58.78;36.22;;;;;;;;;;5049899;28;20396;-85
2023/10/30 03:56:56;;;;;;;81.35;42.88;;;;;;;;;;5049759;28;20028;-86
2023/10/30 03:59:22;;;;;;;79.10;41.65;;;14.70;99.90;;;;;;5048529;28;20028;-85
2023/10/30 04:01:49;;;;;;;84.13;43.55;;;;;;;;;;5049186;28;20107;-90
2023/10/30 04:04:15;;;;;;;8.63;4.10;;;;;;;;;;5048810;28;20515;-87
2023/10/30 04:06:41;;;;;;;8.05;1.90;;;;;;;;;;5047842;28;20029;-85
2023/10/30 04:09:07;;;;;;;25.83;19.40;;;12.50;99.90;;;;;;5050219;28;20091;-89
2023/10/30 04:11:33;;;;;;;47.83;30.33;;;13.90;99.90;;;;;;5048478;28;20024;-88
2023/10/30 04:13:59;;;;;;;52.92;33.65;;;;;;;;;;5048112;28;20248;-86
2023/10/30 04:16:25;;;;;;;64.32;37.03;;;;;;;;;;5047755;28;20175;-85
2023/10/30 04:18:51;;;;;;;60.97;35.63;;;13.70;99.90;;;;;;5048075;28;20076;-86
2023/10/30 04:21:16;;;;;;;60.97;36.55;;;12.80;99.90;;;;;;5036519;28;20032;-87
2023/10/30 04:23:43;;;;;;;59.92;35.83;;;13.70;99.90;;;;;;5047974;28;20031;-89
2023/10/30 04:26:10;;;;;;;53.38;34.35;;;12.90;99.90;;;;;;5048541;28;20023;-85
2023/10/30 04:28:36;;;;;;;51.53;33.75;;;17.30;99.90;;;;;;5048661;28;20041;-85
2023/10/30 04:31:02;;;;;;;59.03;34.25;;;;;;;;;;5047994;28;20021;-86
2023/10/30 04:33:27;;;;;;;65.63;37.28;;;13.60;99.90;;;;;;5049104;28;20104;-88
2023/10/30 04:35:56;;;;;;;47.75;28.48;;;13.30;99.90;;;;;;5047743;28;20109;-85
2023/10/30 04:38:24;;;;;;;47.65;30.50;;;12.30;99.90;;;;;;5049110;28;20524;-85
2023/10/30 04:40:49;;;;;;;42.63;28.83;;;;;;;;;;5047698;28;20120;-85
2023/10/30 04:43:15;;;;;;;54.08;33.28;;;12.30;99.90;;;;;;5051437;28;20095;-87
2023/10/30 04:45:41;;;;;;;52.40;34.20;;;;;;;;;;5063151;28;20033;-86
2023/10/30 04:48:07;;;;;;;54.10;33.50;;;10.60;99.90;;;;;;5062868;28;20033;-85
2023/10/30 04:50:33;;;;;;;58.38;35.92;;;;;;;;;;5049173;28;20086;-88
2023/10/30 04:52:58;;;;;;;63.20;37.35;;;12.70;99.90;;;;;;5048885;28;20043;-87
2023/10/30 04:55:24;;;;;;;64.63;37.70;;;12.40;99.90;;;;;;5055898;28;20033;-89
2023/10/30 04:57:50;;;;;;;68.43;39.00;;;13.60;99.90;;;;;;5049400;28;20053;-89
2023/10/30 05:00:15;;;;;;;67.88;38.75;;;12.00;99.90;;;;;;5049577;28;20021;-92
2023/10/30 05:02:46;;;;;;;57.65;35.53;;;;;;;;;;5050882;28;20029;-86
2023/10/30 05:05:12;;;;;;;57.83;35.97;;;;;;;;;;5052959;28;20439;-88
2023/10/30 05:07:38;;;;;;;67.10;37.58;;;11.30;99.90;;;;;;5052420;28;20048;-92
2023/10/30 05:10:03;;;;;;;71.95;39.28;;;16.90;99.90;;;;;;5053337;28;20489;-87
2023/10/30 05:12:29;;;;;;;65.55;36.88;;;12.80;99.90;;;;;;5053307;28;20063;-92
2023/10/30 05:14:55;;;;;;;15.02;12.43;;;;;;;;;;5052736;28;20036;-92
2023/10/30 05:17:21;;;;;;;66.20;39.05;;;11.40;99.90;;;;;;5052531;28;20025;-92
2023/10/30 05:19:46;;;;;;;69.32;39.25;;;12.20;99.90;;;;;;5053419;28;20115;-89
2023/10/30 05:22:12;;;;;;;67.10;37.92;;;10.10;99.90;;;;;;5051891;28;20021;-85
2023/10/30 05:24:38;;;;;;;64.65;37.72;;;13.20;99.90;;;;;;5052651;28;20029;-85
2023/10/30 05:27:04;;;;;;;63.58;37.53;;;;;;;;;;5051052;28;20017;-89
2023/10/30 05:29:30;;;;;;;67.35;37.33;;;;;;;;;;5051951;28;20439;-88
2023/10/30 05:31:57;;;;;;;58.85;35.50;;;12.40;99.90;;;;;;5033863;28;20096;-89
2023/10/30 05:34:26;;;;;;;78.85;42.05;;;11.50;99.90;;;;;;5044191;28;20033;-86
2023/10/30 05:36:52;;;;;;;91.90;45.72;;;;;;;;;;5052710;28;20103;-86
2023/10/30 05:39:18;;;;;;;60.97;36.90;;;;;;;;;;5051534;28;20496;-89
2023/10/30 05:41:44;;;;;;;66.22;39.08;;;;;;;;;;5051271;28;20032;-87
2023/10/30 05:44:11;;;;;;;73.63;41.22;;;;;;;;;;5033674;28;20079;-85
2023/10/30 05:46:37;;;;;;;75.35;41.13;;;;;;;;;;5047828;28;20025;-91
2023/10/30 05:49:03;;;;;;;79.03;42.00;;;;;;;;;;5032247;28;20041;-88
2023/10/30 05:51:29;;;;;;;87.20;43.88;;;;;;;;;;5050326;28;20053;-92
2023/10/30 05:53:55;;;;;;;94.80;46.55;;;11.60;99.90;;;;;;5036080;28;20505;-88
2023/10/30 05:56:20;;;;;;;90.32;45.33;;;13.10;99.90;;;;;;5050354;28;20013;-89
2023/10/30 05:58:46;;;;;;;92.53;45.30;;;13.50;99.90;;;;;;5048992;28;20453;-87
2023/10/30 06:01:11;;;;;;;93.85;46.05;;;12.10;99.90;;;;;;5050083;28;20166;-90
2023/10/30 06:03:37;;;;;;;91.95;45.70;;;;;;;;;;5051337;28;20032;-89
2023/10/30 06:06:04;;;;;;;118.50;51.75;;;11.50;99.90;;;;;;5051933;28;20037;-87
2023/10/30 06:08:30;;;;;;;106.82;49.42;;;;;;;;;;5051812;28;20082;-88
2023/10/30 06:10:56;;;;;;;116.50;51.97;;;;;;;;;;5049491;28;20025;-89
2023/10/30 06:13:22;;;;;;;118.55;51.17;;;13.20;99.90;;;;;;5048889;28;20028;-88
2023/10/30 06:15:49;;;;;;;92.28;46.00;;;;;;;;;;5050293;28;20025;-86
2023/10/30 06:18:15;;;;;;;100.88;47.58;;;;;;;;;;5050570;28;20427;-86
2023/10/30 06:20:43;;;;;;;103.30;48.55;;;12.20;99.90;;;;;;5048797;28;20029;-87
2023/10/30 06:23:09;;;;;;;64.18;37.63;;;10.60;99.90;;;;;;5049169;28;20036;-85
2023/10/30 06:25:37;;;;;;;83.47;43.33;;;11.70;99.90;;;;;;5051288;28;20270;-89
2023/10/30 06:28:03;;;;;;;85.47;43.15;;;12.60;99.90;;;;;;5051227;28;20033;-86
2023/10/30 06:30:28;;;;;;;95.80;46.88;;;11.80;99.90;;;;;;5050799;28;20029;-86
2023/10/30 06:32:55;;;;;;;101.63;48.20;;;12.00;99.90;;;;;;5049936;28;20095;-87
2023/10/30 06:35:21;;;;;;;105.40;48.47;;;;;;;;;;5048505;28;20013;-86
2023/10/30 06:37:47;;;;;;;86.75;44.70;;;;;;;;;;5051679;28;20488;-86
2023/10/30 06:40:13;;;;;;;88.15;44.10;;;;;;;;;;5051590;28;20056;-87
2023/10/30 06:42:39;;;;;;;79.45;42.25;;;;;;;;;;5048411;28;20507;-87
2023/10/30 06:45:05;;;;;;;98.75;47.03;;;11.70;99.90;;;;;;5051319;28;20024;-86
2023/10/30 06:47:30;;;;;;;98.00;45.63;;;12.50;99.90;;;;;;5046810;28;20045;-86
2023/10/30 06:49:57;;;;;;;82.38;43.03;;;;;;;;;;5046727;28;20056;-85
2023/10/30 06:52:23;;;;;;;87.38;44.50;;;11.60;99.90;;;;;;5046895;28;20053;-86
2023/10/30 06:54:49;;;;;;;85.60;43.90;;;13.30;99.90;;;;;;5048114;28;20515;-87
2023/10/30 06:57:14;;;;;;;77.57;40.85;;;;;;;;;;5031907;28;20087;-86
2023/10/30 06:59:40;;;;;;;87.15;43.95;;;13.10;99.90;;;;;;5042970;28;20377;-86
2023/10/30 07:02:06;;;;;;;82.55;43.42;;;;;;;;;;5040622;28;20035;-86
2023/10/30 07:04:32;;;;;;;91.38;44.92;;;11.70;99.90;;;;;;5039629;28;20030;-85
2023/10/30 07:06:57;;;;;;;70.35;39.83;;;12.20;99.90;;;;;;5042311;28;20064;-86
2023/10/30 07:09:23;;;;;;;48.08;31.55;;;12.70;99.90;;;;;;5040494;28;20037;-87
2023/10/30 07:11:49;;;;;;;48.30;31.85;;;;;;;;;;5043412;28;20389;-85
2023/10/30 07:14:15;;;;;;;57.08;35.72;;;14.00;99.90;;;;;;5042988;28;20393;-84
2023/10/30 07:16:41;;;;;;;69.53;39.45;;;;;;;;;;5040429;28;20029;-85
2023/10/30 07:19:06;;;;;;;84.25;44.55;;;10.80;99.90;;;;;;5037087;28;20015;-85
2023/10/30 07:21:32;;;;;;;75.18;40.88;;;;;;;;;;5039606;28;20029;-86
2023/10/30 07:23:58;;;;;;;84.68;44.13;;;;;;;;;;5039738;28;20550;-85
2023/10/30 07:26:24;;;;;;;70.05;40.22;;;13.40;99.90;;;;;;5043707;28;20049;-87
2023/10/30 07:28:51;;;;;;;66.25;38.63;;;12.80;99.90;;;;;;5042754;28;20036;-84
2023/10/30 07:31:33;;;;;;;100.05;47.85;;;12.90;99.90;;;;;;5095125;27;20435;-88
2023/10/30 07:33:59;;;;;;;103.95;48.55;;;;;;;;;;5085411;28;20056;-84
2023/10/30 07:36:26;;;;;;;101.90;47.95;;;;;;;;;;5083681;28;20480;-84
2023/10/30 07:38:52;;;;;;;96.35;47.00;;;;;;;;;;5084703;28;20016;-84
2023/10/30 07:41:18;;;;;;;95.32;46.30;;;;;;;;;;5085623;28;20031;-84
2023/10/30 07:43:44;;;;;;;92.03;45.72;;;15.10;99.90;;;;;;5085452;28;20495;-84
2023/10/30 07:46:13;;;;;;;82.47;43.28;;;10.60;99.90;;;;;;5084941;28;20078;-83
2023/10/30 07:48:39;;;;;;;96.80;46.15;;;12.30;99.90;;;;;;5082996;28;20287;-85
2023/10/30 07:51:05;;;;;;;95.32;46.25;;;;;;;;;;5084439;28;20036;-84
2023/10/30 07:53:31;;;;;;;81.22;43.35;;;;;;;;;;5085693;28;20024;-85
2023/10/30 07:55:57;;;;;;;87.63;45.17;;;;;;;;;;5083719;28;20547;-84
2023/10/30 07:58:23;;;;;;;71.35;40.03;;;;;;;;;;5084383;28;20099;-85
2023/10/30 08:00:49;;;;;;;78.03;41.72;;;;;;;;;;5086375;28;20022;-87
2023/10/30 08:03:15;;;;;;;97.80;47.10;;;12.80;99.90;;;;;;5085303;28;20028;-85
2023/10/30 08:05:43;;;;;;;100.95;47.47;;;12.20;99.90;;;;;;5083241;28;20031;-83
2023/10/30 08:08:09;;;;;;;95.13;46.88;;;12.20;99.90;;;;;;5081426;28;20099;-82
2023/10/30 08:10:35;;;;;;;8.52;4.55;;;;;;;;;;5085060;28;20028;-84
2023/10/30 08:13:01;;;;;;;64.45;37.40;;;12.00;99.90;;;;;;5083252;28;20387;-85
2023/10/30 08:15:26;;;;;;;87.53;44.33;;;13.30;99.90;;;;;;5085373;28;20024;-85
2023/10/30 08:17:53;;;;;;;90.65;45.47;;;;;;;;;;5084780;28;20109;-86
2023/10/30 08:20:19;;;;;;;87.05;45.00;;;;;;;;;;5083810;28;20036;-91
2023/10/30 08:22:45;;;;;;;89.70;45.17;;;15.30;99.90;;;;;;5085204;28;20368;-86
2023/10/30 08:25:11;;;;;;;80.15;42.97;;;11.90;99.90;;;;;;5084891;28;20480;-90
2023/10/30 08:27:36;;;;;;;95.38;46.40;;;13.20;99.90;;;;;;5084678;28;20039;-86
2023/10/30 08:30:03;;;;;;;88.93;45.78;;;14.30;99.90;;;;;;5084352;28;20526;-86
2023/10/30 08:32:29;;;;;;;103.10;48.40;;;12.30;99.90;;;;;;5083924;28;20030;-89
2023/10/30 08:34:56;;;;;;;99.22;47.55;;;;;;;;;;5084622;28;20032;-88
2023/10/30 08:37:22;;;;;;;94.25;46.30;;;;;;;;;;5085567;28;20020;-87
2023/10/30 08:39:48;;;;;;;99.10;47.33;;;;;;;;;;5084956;28;20027;-86
2023/10/30 08:42:14;;;;;;;92.35;46.17;;;;;;;;;;5074393;28;20039;-86
2023/10/30 08:44:39;;;;;;;109.93;49.88;;;13.00;99.90;;;;;;5070409;28;20112;-85
2023/10/30 08:47:05;;;;;;;109.32;50.53;;;12.20;99.90;;;;;;5071780;28;20032;-86
2023/10/30 08:49:32;;;;;;;106.60;49.53;;;;;;;;;;5070568;28;20078;-89
2023/10/30 08:51:58;;;;;;;80.80;43.53;;;12.40;99.90;;;;;;5071690;28;20515;-84
2023/10/30 08:54:23;;;;;;;95.45;47.03;;;12.70;99.90;;;;;;5071701;28;20052;-85
2023/10/30 08:56:49;;;;;;;96.57;47.17;;;11.60;99.90;;;;;;5072536;28;20056;-88
2023/10/30 08:59:15;;;;;;;96.15;47.08;;;;;;;;;;5071043;28;20492;-84
2023/10/30 09:01:41;;;;;;;97.25;47.67;;;;;;;;;;5070234;28;20028;-84
2023/10/30 09:04:08;;;;;;;81.40;42.42;;;;;;;;;;5071414;28;20422;-83
2023/10/30 09:06:34;;;;;;;103.72;49.70;;;13.40;99.90;;;;;;5069549;28;20039;-84
2023/10/30 09:09:00;;;;;;;114.50;51.55;;;12.80;99.90;;;;;;5062702;28;20017;-86
2023/10/30 09:11:25;;;;;;;110.80;49.97;;;13.60;99.90;;;;;;5059275;28;20055;-84
2023/10/30 09:13:52;;;;;;;95.75;45.85;;;14.00;99.90;;;;;;5066483;28;20171;-84
2023/10/30 09:16:17;;;;;;;92.15;45.67;;;13.40;99.90;;;;;;5066358;28;20099;-84
2023/10/30 09:18:43;;;;;;;92.97;46.13;;;12.90;99.90;;;;;;5069276;28;20611;-84
2023/10/30 09:21:09;;;;;;;99.28;48.25;;;;;;;;;;5069105;28;20025;-84
2023/10/30 09:23:35;;;;;;;82.40;43.40;;;;;;;;;;5067112;28;20035;-85
2023/10/30 09:26:02;;;;;;;92.15;46.05;;;14.00;99.90;;;;;;5055860;28;20103;-84
2023/10/30 09:28:28;;;;;;;86.18;43.90;;;13.70;99.90;;;;;;5050807;28;20098;-86
2023/10/30 09:30:54;;;;;;;91.55;44.78;;;13.10;99.90;;;;;;5050682;28;20496;-84
2023/10/30 09:33:19;;;;;;;89.32;45.28;;;16.40;99.90;;;;;;5065884;28;20021;-86
2023/10/30 09:35:45;;;;;;;83.55;43.63;;;;;;;;;;5068998;28;20048;-84
2023/10/30 09:38:11;;;;;;;90.70;44.10;;;12.40;99.90;;;;;;5070019;28;20016;-85
2023/10/30 09:40:37;;;;;;;104.85;48.03;;;;;;;;;;5066973;28;20032;-85
2023/10/30 09:43:07;;;;;;;7.32;3.05;;;;;;;;;;5067910;28;20017;-87
2023/10/30 09:45:35;;;;;;;5.80;2.65;;;14.70;99.90;;;;;;5070261;28;20036;-86
2023/10/30 09:48:03;;;;;;;8.07;2.10;;;14.60;99.90;;;;;;5065980;28;20020;-87
2023/10/30 09:50:30;;;;;;;4.05;2.28;;;14.30;99.90;;;;;;5068995;28;20043;-89
2023/10/30 09:52:57;;;;;;;3.20;1.45;;;14.30;99.90;;;;;;5084479;28;20016;-87
2023/10/30 09:55:24;;;;;;;1.75;1.20;;;13.30;99.90;;;;;;5073801;28;20044;-87
2023/10/30 09:57:51;;;;;;;3.17;1.25;;;13.30;99.90;;;;;;5079240;28;20024;-87
2023/10/30 10:00:18;;;;;;;7.57;6.97;;;14.60;99.90;;;;;;5077252;28;20024;-86
2023/10/30 10:02:44;;;;;;;52.47;30.92;;;13.90;99.90;;;;;;5057800;28;20261;-88
2023/10/30 10:05:12;;;;;;;55.55;34.15;;;13.00;99.90;;;;;;5060398;28;20017;-86
2023/10/30 10:07:38;;;;;;;60.40;36.28;;;13.30;99.90;;;;;;5068855;28;20025;-88
2023/10/30 10:10:06;;;;;;;47.10;31.40;;;13.60;99.90;;;;;;5066177;28;20036;-87
2023/10/30 10:12:33;;;;;;;63.90;38.13;;;13.20;99.90;;;;;;5071655;28;20101;-85
2023/10/30 10:14:59;;;;;;;54.15;33.63;;;14.00;99.90;;;;;;5068862;28;20032;-85
2023/10/30 10:17:26;;;;;;;54.65;35.03;;;;;;;;;;5066399;28;20024;-85
2023/10/30 10:19:52;;;;;;;71.75;40.55;;;;;;;;;;5076606;28;20479;-85
2023/10/30 10:22:28;;;;;;;80.90;43.15;;;13.10;99.90;;;;;;5080025;28;20032;-87
2023/10/30 10:24:55;;;;;;;83.43;44.03;;;;;;;;;;5077631;28;20024;-86
2023/10/30 10:27:24;;;;;;;68.30;38.60;;;13.00;99.90;;;;;;5077656;28;20115;-86
2023/10/30 10:29:56;;;;;;;;;;;13.40;99.90;;;;;;5081578;28;20058;-88
2023/10/30 10:32:25;;;;;;;93.22;46.58;;;13.00;99.90;;;;;;5071002;28;19908;-89
2023/10/30 10:35:06;;;;;;;90.10;44.95;;;13.00;99.90;;;;;;5072053;28;20036;-86
2023/10/30 10:37:33;;;;;;;90.07;45.55;;;14.00;99.90;;;;;;5078875;28;20024;-87
2023/10/30 10:40:00;;;;;;;88.57;44.60;;;;;;;;;;5077658;28;20024;-86
2023/10/30 10:42:27;;;;;;;21.40;18.63;;;13.40;99.90;;;;;;5069640;28;20482;-87
2023/10/30 10:44:55;;;;;;;40.40;27.97;;;11.90;99.90;;;;;;5087157;28;20012;-86
2023/10/30 10:47:22;;;;;;;57.55;35.88;;;13.20;99.90;;;;;;5081046;28;20476;-86
2023/10/30 10:49:48;;;;;;;56.33;35.70;;;13.40;99.90;;;;;;5069797;28;20073;-87
2023/10/30 10:52:15;;;;;;;83.65;43.53;;;14.70;99.90;;;;;;5077509;28;20070;-87
2023/10/30 10:55:05;;;;;;;65.60;38.30;;;14.00;99.90;;;;;;5055200;28;20032;-86
2023/10/30 10:57:51;;;;;;;79.90;41.72;;;13.60;99.90;;;;;;5075320;28;20301;-85
2023/10/30 11:00:18;;;;;;;67.40;39.10;;;13.50;99.90;;;;;;5067020;28;20035;-86
2023/10/30 11:02:47;;;;;;;85.70;44.00;;;13.50;99.90;;;;;;5067691;28;20400;-86
2023/10/30 11:05:17;;;;;;;75.10;41.47;;;13.30;99.90;;;;;;5066987;28;20073;-86
2023/10/30 11:07:57;;;;;;;73.10;40.75;;;13.90;99.90;;;;;;5078458;28;20400;-86
2023/10/30 11:10:38;;;;;;;69.80;39.42;;;13.50;99.90;;;;;;5077967;28;20063;-87
2023/10/30 11:14:08;;;;;;;79.30;42.90;;;13.90;99.90;;;;;;5077317;28;20016;-88
2023/10/30 11:17:05;;;;;;;77.28;42.05;;;13.50;99.90;;;;;;4997662;28;20026;-86
2023/10/30 11:19:32;;;;;;;63.05;37.38;;;13.90;99.90;;;;;;4975398;28;20068;-86
2023/10/30 11:22:01;;;;;;;61.40;37.25;;;12.00;99.90;;;;;;5065465;28;20086;-87
2023/10/30 11:24:43;;;;;;;50.65;31.73;;;14.70;99.90;;;;;;5074875;28;20128;-88
2023/10/30 11:27:27;;;;;;;48.38;31.77;;;14.60;99.90;;;;;;5069863;28;20024;-88
2023/10/30 11:30:22;;;;;;;183.52;67.32;;;12.60;99.90;;;;;;5076178;28;20024;-87
2023/10/30 11:32:52;;;;;;;101.90;47.88;;;13.00;99.90;;;;;;5065526;28;20040;-88
2023/10/30 11:35:24;;;;;;;81.90;43.22;;;14.00;99.90;;;;;;5074472;28;20024;-88
2023/10/30 11:37:53;;;;;;;102.43;48.22;;;13.40;99.90;;;;;;5085119;28;20093;-89
2023/10/30 11:40:19;;;;;;;96.05;46.35;;;;;;;;;;5062359;28;20081;-88
2023/10/30 11:42:45;;;;;;;94.50;46.28;;;12.50;99.90;;;;;;5074840;28;20027;-89
2023/10/30 11:45:22;;;;;;;84.75;43.83;;;13.40;99.90;;;;;;5076362;28;20031;-86
2023/10/30 11:48:08;;;;;;;81.70;42.90;;;13.50;99.90;;;;;;5073246;28;20024;-86
2023/10/30 11:50:42;;;;;;;98.15;47.67;;;13.60;99.90;;;;;;5075797;28;20080;-86
2023/10/30 11:53:11;;;;;;;94.38;45.97;;;13.50;99.90;;;;;;5078013;28;20029;-85
2023/10/30 11:55:38;;;;;;;94.47;46.53;;;13.70;99.90;;;;;;5076913;28;20024;-87
2023/10/30 11:58:04;;;;;;;88.10;44.97;;;;;;;;;;5075683;28;20055;-88
2023/10/30 12:00:30;;;;;;;91.15;45.08;;;13.10;99.90;;;;;;5074256;28;20028;-87
2023/10/30 12:02:57;;;;;;;82.55;44.08;;;12.20;99.90;;;;;;5079177;28;20027;-87
2023/10/30 12:05:26;;;;;;;88.95;45.08;;;13.80;99.90;;;;;;5076174;28;20028;-87
2023/10/30 12:07:51;;;;;;;93.00;46.00;;;13.20;99.90;;;;;;5075188;28;20021;-87
2023/10/30 12:10:18;;;;;;;47.55;32.08;;;17.20;99.90;;;;;;5078531;28;20255;-88
2023/10/30 12:12:44;;;;;;;60.35;36.35;;;13.30;99.90;;;;;;5071889;28;20090;-87
2023/10/30 12:15:09;;;;;;;63.38;36.90;;;10.50;99.90;;;;;;5073794;28;20482;-86
2023/10/30 12:17:36;;;;;;;60.47;36.80;;;13.00;99.90;;;;;;5090791;28;20813;-88
2023/10/30 12:20:03;;;;;;;71.32;40.15;;;;;;;;;;5088531;28;20130;-92
2023/10/30 12:22:29;;;;;;;113.60;50.65;;;12.80;99.90;;;;;;5080726;28;20373;-87
2023/10/30 12:24:57;;;;;;;107.57;49.17;;;;;;;;;;5081509;28;20023;-86
2023/10/30 12:27:23;;;;;;;4.20;0.90;;;12.50;99.90;;;;;;5070819;28;20089;-87
2023/10/30 12:29:55;;;;;;;0.90;0.90;;;12.30;99.90;;;;;;5070131;28;20476;-87
2023/10/30 12:32:21;;;;;;;1.35;0.88;;;12.60;99.90;;;;;;5071950;28;20075;-90
2023/10/30 12:34:46;;;;;;;7.20;3.38;;;12.50;99.90;;;;;;5070857;28;20028;-87
2023/10/30 12:37:25;;;;;;;5.38;2.67;;;12.90;99.90;;;;;;5071462;28;20024;-90
2023/10/30 12:40:12;;;;;;;3.78;0.93;;;12.70;99.90;;;;;;5070417;28;20036;-86
2023/10/30 12:42:45;;;;;;;6.28;3.72;;;12.50;99.90;;;;;;5068146;28;20028;-89
2023/10/30 12:45:13;;;;;;;4.68;2.55;;;12.40;99.90;;;;;;5071185;28;20111;-90
2023/10/30 12:47:43;;;;;;;3.33;2.30;;;12.50;99.90;;;;;;5078255;28;20111;-89
2023/10/30 12:50:10;;;;;;;20.83;17.92;;;12.40;99.90;;;;;;5072620;28;20098;-88
2023/10/30 12:52:38;;;;;;;46.55;31.05;;;13.00;99.90;;;;;;5074101;28;20024;-89
2023/10/30 12:55:05;;;;;;;4.97;3.00;;;10.20;99.90;;;;;;5067403;28;20601;-87
2023/10/30 12:57:32;;;;;;;1.25;1.02;;;;;;;;;;5062706;28;20404;-87
2023/10/30 12:59:58;;;;;;;2.58;1.15;;;13.40;99.90;;;;;;5091277;28;20017;-86
2023/10/30 13:02:24;;;;;;;2.00;1.40;;;;;;;;;;5069024;28;20028;-86